Time;durP1;ratioP1;P1;durP2;ratioP2;P2;SDS_P1;SDS_P2;PMS_P1;PMS_P2;Temp;Humidity;BMP_temperature;BMP_pressure;BME280_temperature;BME280_humidity;BME280_pressure;Samples;Min_cycle;Max_cycle;Signal;HPM_P1;HPM_P2
2022/05/17 00:04:48;;;;;;;4.18;2.97;;;23.00;77.00;;;;;;10907696;32;20335;-71
2022/05/17 00:10:50;;;;;;;4.37;3.53;;;23.00;76.70;;;;;;10907497;32;20026;-71
2022/05/17 00:16:53;;;;;;;5.00;4.12;;;23.00;76.80;;;;;;10905631;32;20023;-72
2022/05/17 00:22:55;;;;;;;6.85;4.50;;;22.90;76.60;;;;;;10906807;32;20023;-72
2022/05/17 00:28:57;;;;;;;3.92;3.00;;;22.80;76.70;;;;;;10906907;32;20015;-72
2022/05/17 00:34:59;;;;;;;6.70;4.35;;;22.80;76.70;;;;;;10902552;32;20035;-72
2022/05/17 00:41:01;;;;;;;7.30;3.83;;;22.80;76.70;;;;;;10906407;32;20015;-72
2022/05/17 00:47:30;;;;;;;4.47;3.50;;;22.60;76.70;;;;;;10906198;32;20414;-72
2022/05/17 00:53:34;;;;;;;6.82;4.07;;;22.60;76.80;;;;;;10906059;32;20275;-72
2022/05/17 00:59:38;;;;;;;3.47;2.20;;;22.50;76.90;;;;;;10905915;32;20050;-73
2022/05/17 01:05:46;;;;;;;4.70;3.90;;;22.40;76.80;;;;;;10905526;32;20097;-73
2022/05/17 01:11:56;;;;;;;6.63;4.37;;;22.20;76.80;;;;;;10905346;32;20050;-72
2022/05/17 01:17:58;;;;;;;9.23;4.25;;;22.20;77.00;;;;;;10897236;27;20039;-72
2022/05/17 01:24:00;;;;;;;6.40;4.28;;;22.20;77.00;;;;;;10889826;32;20031;-72
2022/05/17 01:30:04;;;;;;;4.95;3.45;;;22.30;76.90;;;;;;10904393;32;20438;-72
2022/05/17 01:36:10;;;;;;;5.00;3.85;;;22.30;76.70;;;;;;10904894;32;20019;-72
2022/05/17 01:42:14;;;;;;;6.55;5.10;;;22.40;76.80;;;;;;10904620;32;20031;-72
2022/05/17 01:48:17;;;;;;;5.80;4.32;;;22.40;76.80;;;;;;10904452;32;20296;-72
2022/05/17 01:54:19;;;;;;;7.57;5.10;;;22.50;76.70;;;;;;10904311;32;20016;-72
2022/05/17 02:00:24;;;;;;;5.28;4.00;;;22.50;76.90;;;;;;10904262;32;20049;-72
2022/05/17 02:06:26;;;;;;;4.37;3.35;;;22.40;76.80;;;;;;10899984;32;20403;-72
2022/05/17 02:12:28;;;;;;;4.55;3.28;;;22.40;76.80;;;;;;10903869;32;20024;-72
2022/05/17 02:18:31;;;;;;;5.22;3.58;;;22.30;76.90;;;;;;10904083;32;20315;-72
2022/05/17 02:24:33;;;;;;;5.35;3.87;;;22.20;76.80;;;;;;10903706;32;20054;-73
2022/05/17 02:30:36;;;;;;;5.55;3.78;;;21.90;77.10;;;;;;10903808;32;20422;-72
2022/05/17 02:36:38;;;;;;;10.57;5.10;;;21.80;77.20;;;;;;10903801;32;20038;-72
2022/05/17 02:42:40;;;;;;;8.73;4.50;;;21.80;77.30;;;;;;10905341;32;20027;-72
2022/05/17 02:48:43;;;;;;;7.93;4.05;;;21.80;77.20;;;;;;10910593;32;20027;-72
2022/05/17 02:54:45;;;;;;;8.18;3.90;;;21.80;77.10;;;;;;10908209;32;20055;-72
2022/05/17 03:00:47;;;;;;;4.85;3.25;;;21.70;77.40;;;;;;10909860;32;20050;-72
2022/05/17 03:06:49;;;;;;;4.22;2.65;;;21.70;77.30;;;;;;10909825;32;20053;-72
2022/05/17 03:12:51;;;;;;;3.53;2.70;;;21.80;77.40;;;;;;10896301;32;20327;-72
2022/05/17 03:18:53;;;;;;;7.43;4.80;;;21.70;77.50;;;;;;10909570;32;20351;-72
2022/05/17 03:24:55;;;;;;;6.68;4.20;;;21.70;77.40;;;;;;10908927;32;20066;-72
2022/05/17 03:30:58;;;;;;;8.68;3.92;;;21.60;77.50;;;;;;10908913;32;20031;-72
2022/05/17 03:37:00;;;;;;;4.55;3.20;;;21.60;77.40;;;;;;10908806;32;20057;-72
2022/05/17 03:43:02;;;;;;;3.90;2.90;;;21.70;77.50;;;;;;10895296;32;20045;-72
2022/05/17 03:49:05;;;;;;;5.90;4.00;;;21.50;77.50;;;;;;10908351;32;20066;-72
2022/05/17 03:55:08;;;;;;;6.55;4.82;;;21.30;77.80;;;;;;10907543;32;20015;-72
2022/05/17 04:01:11;;;;;;;4.95;3.45;;;21.40;77.60;;;;;;10907852;32;20327;-72
2022/05/17 04:07:14;;;;;;;5.22;3.95;;;21.30;77.70;;;;;;10907514;32;20038;-72
2022/05/17 04:13:17;;;;;;;4.85;3.60;;;21.30;77.70;;;;;;10907461;32;20058;-72
2022/05/17 04:19:19;;;;;;;4.82;3.45;;;21.30;77.50;;;;;;10907200;32;20046;-72
2022/05/17 04:25:25;;;;;;;4.95;4.05;;;21.30;77.60;;;;;;10906859;32;20053;-72
2022/05/17 04:31:27;;;;;;;6.68;4.10;;;21.30;77.50;;;;;;10906805;32;20023;-72
2022/05/17 04:37:29;;;;;;;4.68;3.55;;;21.30;77.50;;;;;;10906545;32;20054;-71
2022/05/17 04:43:31;;;;;;;4.62;3.65;;;21.30;77.40;;;;;;10906136;32;20023;-72
2022/05/17 04:49:33;;;;;;;7.57;3.97;;;21.30;77.50;;;;;;10906170;32;20320;-71
2022/05/17 04:55:35;;;;;;;5.93;4.20;;;21.30;77.40;;;;;;10905892;32;20058;-72
2022/05/17 05:01:38;;;;;;;5.82;4.30;;;21.30;77.60;;;;;;10905894;32;20062;-72
2022/05/17 05:07:42;;;;;;;5.80;4.37;;;21.20;77.60;;;;;;10905449;32;20418;-72
2022/05/17 05:13:45;;;;;;;5.95;3.97;;;21.20;77.70;;;;;;10905234;32;20343;-72
2022/05/17 05:19:47;;;;;;;8.18;5.18;;;21.30;77.70;;;;;;10905167;32;20342;-72
2022/05/17 05:25:49;;;;;;;6.75;4.68;;;21.30;77.60;;;;;;10904848;32;20349;-72
2022/05/17 05:31:51;;;;;;;7.55;4.25;;;21.40;77.60;;;;;;10904912;32;20011;-72
2022/05/17 05:37:54;;;;;;;7.97;4.68;;;21.60;77.40;;;;;;10904533;32;20026;-73
2022/05/17 05:43:56;;;;;;;4.75;3.22;;;21.80;77.30;;;;;;10901643;32;20027;-72
2022/05/17 05:49:58;;;;;;;6.45;4.53;;;21.80;77.10;;;;;;10904259;32;20388;-72
2022/05/17 05:56:05;;;;;;;5.55;2.90;;;21.80;77.00;;;;;;10857586;32;20036;-72
2022/05/17 06:02:08;;;;;;;4.95;3.40;;;21.90;76.80;;;;;;10862553;32;20039;-72
2022/05/17 06:08:16;;;;;;;11.05;7.18;;;21.90;76.40;;;;;;10866459;32;20019;-72
2022/05/17 06:14:20;;;;;;;7.55;4.55;;;21.90;76.20;;;;;;10863412;32;20062;-73
2022/05/17 06:20:22;;;;;;;7.18;4.55;;;22.00;76.30;;;;;;10892684;32;20019;-72
2022/05/17 06:26:29;;;;;;;5.12;2.92;;;22.20;76.00;;;;;;10911088;32;20054;-72
2022/05/17 06:32:31;;;;;;;3.22;2.42;;;22.30;75.80;;;;;;10896423;32;20027;-72
2022/05/17 06:38:33;;;;;;;3.72;2.47;;;22.40;75.80;;;;;;10901530;32;20039;-72
2022/05/17 06:44:39;;;;;;;5.25;2.85;;;22.60;75.50;;;;;;10893617;32;20070;-72
2022/05/17 06:50:41;;;;;;;3.15;1.95;;;22.60;75.30;;;;;;10891811;32;20031;-72
2022/05/17 06:56:43;;;;;;;3.58;2.33;;;22.70;74.80;;;;;;10893294;32;20034;-72
2022/05/17 07:02:45;;;;;;;4.03;2.37;;;22.70;74.40;;;;;;10909545;32;20043;-72
2022/05/17 07:08:48;;;;;;;7.15;2.28;;;22.70;74.20;;;;;;10909164;32;20390;-72
2022/05/17 07:14:51;;;;;;;2.95;2.42;;;22.80;73.60;;;;;;10909380;32;20022;-72
2022/05/17 07:20:53;;;;;;;2.55;1.92;;;23.00;73.30;;;;;;10907574;32;20049;-72
2022/05/17 07:26:55;;;;;;;3.08;2.42;;;23.10;73.30;;;;;;10909072;32;20344;-72
2022/05/17 07:32:58;;;;;;;8.32;3.25;;;23.10;72.70;;;;;;10907702;32;20323;-72
2022/05/17 07:39:02;;;;;;;4.53;2.90;;;23.20;72.70;;;;;;10908344;32;20339;-73
2022/05/17 07:45:05;;;;;;;5.62;3.35;;;23.20;72.50;;;;;;10908102;32;20391;-74
2022/05/17 07:51:07;;;;;;;3.40;2.33;;;23.30;72.40;;;;;;10908098;32;20027;-72
2022/05/17 07:57:09;;;;;;;6.20;3.42;;;23.30;72.30;;;;;;10908030;32;20097;-72
2022/05/17 08:03:26;;;;;;;3.58;2.53;;;23.40;71.80;;;;;;10907447;32;20305;-73
2022/05/17 08:09:28;;;;;;;2.95;1.98;;;23.50;71.60;;;;;;10907438;32;20015;-73
2022/05/17 08:15:30;;;;;;;5.87;2.67;;;23.70;71.20;;;;;;10907229;32;20058;-72
2022/05/17 08:21:33;;;;;;;6.00;3.10;;;23.80;70.90;;;;;;10904767;32;20427;-72
2022/05/17 08:27:39;;;;;;;5.35;3.83;;;23.80;70.50;;;;;;10902224;32;20031;-71
2022/05/17 08:33:41;;;;;;;5.05;2.33;;;24.00;70.60;;;;;;10906158;32;20011;-72
2022/05/17 08:39:43;;;;;;;3.00;2.10;;;24.10;70.10;;;;;;10905594;32;20049;-72
2022/05/17 08:46:09;;;;;;;3.87;2.40;;;24.20;69.80;;;;;;10905038;32;20059;-72
2022/05/17 08:52:21;;;;;;;5.07;3.00;;;24.30;69.30;;;;;;10904405;32;20355;-74
2022/05/17 08:58:33;;;;;;;5.10;3.62;;;24.40;68.30;;;;;;10905480;32;20019;-74
2022/05/17 09:04:44;;;;;;;5.40;2.97;;;24.40;67.80;;;;;;10905412;32;20055;-72
2022/05/17 09:11:17;;;;;;;7.25;3.67;;;24.40;67.40;;;;;;10906519;32;20050;-72
2022/05/17 09:17:22;;;;;;;6.62;4.53;;;24.60;67.20;;;;;;10546728;27;15753769;-72
2022/05/17 09:23:24;;;;;;;4.50;2.90;;;24.70;67.00;;;;;;11055724;32;20025;-72
2022/05/17 09:29:36;;;;;;;6.12;3.90;;;24.80;66.80;;;;;;11043933;32;20103;-72
2022/05/17 09:35:49;;;;;;;6.18;4.00;;;25.00;66.60;;;;;;11053313;32;20314;-73
2022/05/17 09:42:29;;;;;;;8.13;4.00;;;25.10;66.30;;;;;;11056881;32;20056;-72
2022/05/17 09:55:21;;;;;;;6.82;4.30;;;25.30;65.90;;;;;;11054720;32;20048;-73
2022/05/17 10:01:37;;;;;;;9.07;5.70;;;25.50;65.80;;;;;;11050419;32;20072;-73
2022/05/17 10:07:40;;;;;;;9.65;3.58;;;25.70;65.30;;;;;;11056303;32;20314;-73
2022/05/17 10:14:12;;;;;;;7.37;4.53;;;25.90;65.10;;;;;;11042660;32;20030;-73
2022/05/17 10:20:23;;;;;;;6.20;4.25;;;26.10;64.60;;;;;;11052316;32;20022;-72
2022/05/17 10:26:34;;;;;;;10.70;5.78;;;26.20;64.50;;;;;;11042473;32;20342;-73
2022/05/17 10:32:43;;;;;;;10.13;6.20;;;26.30;64.20;;;;;;11055551;32;20040;-72
2022/05/17 10:39:11;;;;;;;12.75;7.00;;;26.50;64.10;;;;;;11055400;32;20311;-79
2022/05/17 10:45:32;;;;;;;11.00;5.40;;;26.70;63.70;;;;;;11055137;32;20398;-73
2022/05/17 10:52:04;;;;;;;7.35;4.18;;;26.70;63.20;;;;;;11041571;32;20041;-75
2022/05/17 10:58:33;;;;;;;5.05;3.50;;;26.90;63.00;;;;;;11052937;32;20053;-73
2022/05/17 11:05:13;;;;;;;6.05;3.22;;;27.00;62.10;;;;;;11057385;32;20013;-73
2022/05/17 11:11:43;;;;;;;5.37;3.33;;;27.40;61.90;;;;;;11049174;32;20043;-73
2022/05/17 11:18:09;;;;;;;6.20;3.90;;;27.80;61.40;;;;;;11031696;32;20034;-72
2022/05/17 11:25:05;;;;;;;6.53;3.97;;;28.10;60.80;;;;;;11047502;32;20030;-73
2022/05/17 11:31:18;;;;;;;4.37;3.03;;;28.30;60.50;;;;;;10867944;32;20081;-73
2022/05/17 11:37:38;;;;;;;5.82;3.67;;;28.50;60.30;;;;;;10851806;32;20058;-74
2022/05/17 11:43:40;;;;;;;6.07;3.58;;;28.80;59.10;;;;;;10867001;32;20070;-73
2022/05/17 11:49:47;;;;;;;5.78;3.25;;;28.90;58.60;;;;;;10865204;32;20028;-74
2022/05/17 11:56:13;;;;;;;7.05;3.62;;;28.90;58.10;;;;;;10860791;32;20046;-75
2022/05/17 12:02:18;;;;;;;3.95;2.58;;;28.90;58.10;;;;;;10916677;32;20061;-73
2022/05/17 12:08:42;;;;;;;5.12;2.97;;;29.00;57.90;;;;;;11016773;32;20045;-73
2022/05/17 12:15:03;;;;;;;4.12;2.70;;;29.10;57.20;;;;;;11021001;32;20331;-74
2022/05/17 12:21:28;;;;;;;6.10;3.80;;;29.30;56.80;;;;;;11053875;32;20398;-77
2022/05/17 12:27:31;;;;;;;4.95;3.47;;;29.30;56.90;;;;;;11057795;32;20030;-76
2022/05/17 12:33:46;;;;;;;3.97;2.72;;;29.30;56.50;;;;;;11055045;32;20030;-73
2022/05/17 12:46:24;;;;;;;6.32;4.65;;;29.30;56.60;;;;;;11058014;32;20052;-74
2022/05/17 12:52:33;;;;;;;6.22;3.65;;;29.30;56.20;;;;;;11057596;32;20080;-74
2022/05/17 12:58:47;;;;;;;6.75;4.32;;;29.30;56.50;;;;;;11044036;32;20405;-72
2022/05/17 13:04:49;;;;;;;8.75;3.80;;;29.40;56.40;;;;;;11057171;32;20038;-73
2022/05/17 13:11:09;;;;;;;5.03;3.60;;;29.40;56.10;;;;;;11057141;32;20049;-72
2022/05/17 13:17:18;;;;;;;8.30;3.15;;;29.50;56.00;;;;;;11056790;32;20025;-70
2022/05/17 13:23:26;;;;;;;3.20;2.53;;;29.50;55.10;;;;;;11057457;32;20040;-73
2022/05/17 13:29:35;;;;;;;4.40;3.23;;;29.40;54.70;;;;;;11043828;32;20214;-73
2022/05/17 13:35:41;;;;;;;7.25;2.90;;;29.50;54.30;;;;;;11037180;32;20057;-72
2022/05/17 13:41:43;;;;;;;5.62;3.50;;;29.40;54.30;;;;;;11056884;32;20291;-73
2022/05/17 13:47:45;;;;;;;6.18;3.05;;;29.40;55.10;;;;;;11053922;32;20432;-74
2022/05/17 13:54:13;;;;;;;4.05;2.83;;;29.40;55.40;;;;;;11052196;32;20076;-73
2022/05/17 14:00:26;;;;;;;5.90;3.65;;;29.50;55.90;;;;;;11056625;32;20026;-73
2022/05/17 14:06:55;;;;;;;4.65;3.12;;;29.60;56.40;;;;;;11056572;32;20026;-73
2022/05/17 14:13:08;;;;;;;6.43;4.30;;;29.50;56.80;;;;;;11038588;32;20346;-74
2022/05/17 14:19:18;;;;;;;7.55;4.45;;;29.50;57.60;;;;;;11042597;32;20010;-73
2022/05/17 14:25:20;;;;;;;4.65;3.42;;;29.30;58.00;;;;;;11056565;32;20014;-74
2022/05/17 14:31:27;;;;;;;5.85;3.80;;;29.40;58.00;;;;;;11045457;32;20021;-73
2022/05/17 14:37:29;;;;;;;8.57;6.10;;;29.30;58.20;;;;;;11004451;32;20090;-74
2022/05/17 14:43:31;;;;;;;10.80;6.07;;;29.30;58.70;;;;;;11020613;32;20386;-74
2022/05/17 14:49:37;;;;;;;7.87;4.93;;;29.20;59.10;;;;;;11024765;32;20346;-73
2022/05/17 14:55:50;;;;;;;5.95;3.37;;;29.20;58.90;;;;;;11010671;32;20014;-75
2022/05/17 15:01:54;;;;;;;11.65;4.22;;;29.30;59.10;;;;;;11024468;32;20030;-73
2022/05/17 15:07:57;;;;;;;8.38;4.72;;;29.30;59.00;;;;;;11024252;32;20036;-73
2022/05/17 15:14:00;;;;;;;4.82;3.22;;;29.40;58.50;;;;;;11023736;32;20018;-73
2022/05/17 15:20:07;;;;;;;7.72;4.37;;;29.60;58.40;;;;;;11023482;32;20022;-73
2022/05/17 15:26:25;;;;;;;7.28;4.18;;;29.60;58.30;;;;;;11018834;32;20026;-73
2022/05/17 15:32:30;;;;;;;12.40;6.07;;;29.50;58.20;;;;;;11022983;32;20045;-74
2022/05/17 15:38:35;;;;;;;14.32;3.45;;;29.60;58.10;;;;;;11022930;32;20325;-74
2022/05/17 15:44:37;;;;;;;5.40;3.55;;;29.70;58.10;;;;;;11034283;32;20467;-73
2022/05/17 15:57:06;;;;;;;5.43;3.65;;;29.80;57.40;;;;;;11056741;32;20041;-74
2022/05/17 16:03:08;;;;;;;6.35;3.83;;;29.80;57.80;;;;;;11027524;32;20233;-74
2022/05/17 16:09:15;;;;;;;4.43;2.78;;;29.80;57.90;;;;;;11021825;32;20014;-74
2022/05/17 16:15:17;;;;;;;7.55;3.50;;;29.90;57.60;;;;;;11016613;32;20342;-73
2022/05/17 16:21:20;;;;;;;5.97;3.40;;;29.90;57.60;;;;;;11007402;32;20049;-73
2022/05/17 16:27:22;;;;;;;4.60;3.50;;;29.90;57.40;;;;;;11007425;32;20381;-73
2022/05/17 16:33:24;;;;;;;5.75;3.12;;;29.90;57.20;;;;;;11017649;32;20018;-73
2022/05/17 16:39:28;;;;;;;5.18;3.85;;;29.80;57.30;;;;;;11020662;32;20018;-73
2022/05/17 16:45:31;;;;;;;5.68;3.42;;;29.80;57.50;;;;;;11020150;32;20037;-73
2022/05/17 16:51:34;;;;;;;9.23;3.28;;;29.80;57.30;;;;;;11020146;32;20390;-73
2022/05/17 16:57:36;;;;;;;5.43;3.50;;;29.70;57.70;;;;;;11031379;32;20030;-73
2022/05/17 17:03:38;;;;;;;8.77;4.05;;;29.60;57.80;;;;;;11057368;32;20054;-73
2022/05/17 17:09:52;;;;;;;6.43;2.80;;;29.50;57.90;;;;;;11048570;32;20017;-73
2022/05/17 17:15:59;;;;;;;18.23;5.15;;;29.40;58.20;;;;;;10995097;26;20053;-73
2022/05/17 17:22:02;;;;;;;11.98;4.43;;;29.30;58.40;;;;;;10942492;32;20054;-73
2022/05/17 17:28:05;;;;;;;3.80;2.70;;;29.20;58.30;;;;;;10942489;32;20019;-74
2022/05/17 17:40:29;;;;;;;7.37;3.20;;;29.70;57.50;;;;;;10916744;32;20392;-73
2022/05/17 17:46:53;;;;;;;9.10;3.28;;;30.60;55.90;;;;;;10904355;32;20400;-75
2022/05/17 17:52:58;;;;;;;5.72;2.92;;;30.80;55.10;;;;;;10904074;32;20068;-74
2022/05/17 17:59:01;;;;;;;7.85;2.47;;;30.20;56.60;;;;;;10903782;32;20015;-74
2022/05/17 18:05:09;;;;;;;;;;;29.80;57.60;;;;;;10901975;32;20058;-74
2022/05/17 18:11:12;;;;;;;4.22;3.15;;;29.10;58.90;;;;;;10909478;32;19926;-74
2022/05/17 18:17:14;;;;;;;4.28;2.87;;;28.70;59.80;;;;;;10947536;32;20042;-74
2022/05/17 18:23:32;;;;;;;7.37;3.72;;;28.30;60.30;;;;;;10945305;32;20023;-74
2022/05/17 18:29:39;;;;;;;;;;;28.10;60.90;;;;;;10930739;32;20019;-74
2022/05/17 18:35:47;;;;;;;3.58;2.42;;;27.80;61.50;;;;;;10924372;32;19934;-74
2022/05/17 18:41:51;;;;;;;4.73;2.53;;;27.60;61.80;;;;;;10910401;32;20042;-74
2022/05/17 18:48:18;;;;;;;4.18;2.55;;;27.50;62.10;;;;;;10906702;32;20041;-74
2022/05/17 18:54:20;;;;;;;2.47;1.85;;;27.30;62.40;;;;;;10911110;32;20065;-74
2022/05/17 19:00:28;;;;;;;4.28;3.00;;;27.20;62.80;;;;;;10895153;32;20387;-74
2022/05/17 19:06:31;;;;;;;6.32;2.90;;;27.00;63.30;;;;;;10909491;32;20035;-74
2022/05/17 19:19:36;;;;;;;2.80;2.03;;;26.80;63.70;;;;;;10907692;32;20019;-74
2022/05/17 19:25:41;;;;;;;3.78;2.72;;;26.70;63.90;;;;;;10896581;32;20323;-74
2022/05/17 19:31:51;;;;;;;4.43;2.35;;;26.70;64.00;;;;;;10907072;32;20031;-74
2022/05/17 19:44:20;;;;;;;7.05;3.03;;;26.60;64.20;;;;;;10908731;32;20027;-74
2022/05/17 19:50:25;;;;;;;3.05;1.77;;;26.50;64.40;;;;;;10908288;32;20026;-73
2022/05/17 19:56:27;;;;;;;3.37;2.08;;;26.40;64.70;;;;;;10894602;32;20077;-73
2022/05/17 20:02:30;;;;;;;3.37;2.03;;;26.30;64.80;;;;;;10905767;32;20027;-73
2022/05/17 20:08:32;;;;;;;4.57;2.50;;;26.30;64.80;;;;;;10894178;32;20019;-74
2022/05/17 20:14:34;;;;;;;4.78;2.45;;;26.30;64.80;;;;;;10907493;32;20011;-73
2022/05/17 20:20:40;;;;;;;4.47;2.25;;;26.20;65.00;;;;;;10917548;32;20050;-73
2022/05/17 20:26:42;;;;;;;2.72;1.77;;;26.20;65.00;;;;;;10915312;32;20350;-73
2022/05/17 20:32:44;;;;;;;4.28;2.37;;;26.20;65.10;;;;;;10919516;32;20422;-73
2022/05/17 20:38:47;;;;;;;3.00;1.95;;;26.10;65.40;;;;;;10929587;32;20088;-73
2022/05/17 20:44:50;;;;;;;3.40;2.22;;;26.10;65.50;;;;;;10935181;32;20023;-73
2022/05/17 20:50:53;;;;;;;3.58;2.20;;;26.00;65.50;;;;;;10915124;32;20023;-73
2022/05/17 20:57:03;;;;;;;2.55;2.15;;;26.00;65.60;;;;;;10940348;32;20038;-72
2022/05/17 21:03:05;;;;;;;3.28;2.47;;;25.90;65.90;;;;;;10942899;32;20041;-73
2022/05/17 21:09:11;;;;;;;3.78;2.10;;;25.80;66.30;;;;;;10942716;32;20015;-73
2022/05/17 21:15:30;;;;;;;4.72;3.12;;;25.80;66.40;;;;;;10943424;32;20421;-73
2022/05/17 21:21:32;;;;;;;3.72;2.65;;;25.70;66.40;;;;;;10938902;32;20023;-73
2022/05/17 21:27:38;;;;;;;3.17;2.12;;;25.60;66.80;;;;;;10940792;32;20402;-73
2022/05/17 21:33:41;;;;;;;2.70;1.85;;;25.70;66.90;;;;;;10942742;32;20015;-73
2022/05/17 21:39:56;;;;;;;4.78;3.05;;;25.60;66.90;;;;;;10929129;32;20015;-73
2022/05/17 21:46:01;;;;;;;3.08;2.33;;;25.50;67.80;;;;;;10942203;32;20027;-73
2022/05/17 21:52:03;;;;;;;5.82;2.37;;;25.30;68.80;;;;;;10941649;32;20010;-73
2022/05/17 21:58:10;;;;;;;4.82;3.03;;;25.20;69.40;;;;;;10928691;32;20311;-73
2022/05/17 22:04:13;;;;;;;4.97;3.03;;;25.20;69.60;;;;;;10939996;32;20023;-72
2022/05/17 22:10:15;;;;;;;4.30;2.92;;;25.20;69.70;;;;;;10928413;32;20050;-73
2022/05/17 22:16:46;;;;;;;3.90;2.42;;;25.10;70.00;;;;;;10941775;32;20054;-73
2022/05/17 22:23:06;;;;;;;3.97;2.75;;;25.10;69.70;;;;;;10937817;32;20088;-73
2022/05/17 22:29:09;;;;;;;4.65;2.90;;;25.10;69.90;;;;;;10937708;32;20062;-73
2022/05/17 22:35:12;;;;;;;5.10;3.33;;;25.10;70.30;;;;;;10941424;32;20065;-73
2022/05/17 22:41:15;;;;;;;6.45;3.53;;;25.00;70.50;;;;;;10941344;32;20011;-73
2022/05/17 22:47:17;;;;;;;4.50;3.55;;;25.00;70.40;;;;;;10941228;32;20027;-73
2022/05/17 22:53:19;;;;;;;8.10;4.00;;;25.00;70.40;;;;;;10927662;32;20038;-72
2022/05/17 22:59:21;;;;;;;6.35;4.10;;;24.90;70.70;;;;;;10942605;32;20420;-73
2022/05/17 23:05:23;;;;;;;12.73;3.75;;;24.90;70.80;;;;;;10934512;32;20027;-73
2022/05/17 23:11:25;;;;;;;8.85;4.75;;;24.90;70.80;;;;;;10947596;32;20027;-73
2022/05/17 23:17:27;;;;;;;7.12;4.80;;;24.90;70.90;;;;;;10947509;32;20049;-73
2022/05/17 23:23:29;;;;;;;6.35;3.40;;;24.80;70.70;;;;;;10947352;32;20355;-73
2022/05/17 23:29:32;;;;;;;5.72;4.05;;;24.80;70.70;;;;;;10947141;32;20026;-73
2022/05/17 23:35:34;;;;;;;8.40;4.90;;;24.80;71.00;;;;;;10933388;32;20050;-73
2022/05/17 23:41:36;;;;;;;19.42;5.43;;;24.80;70.80;;;;;;10942399;32;20054;-73
2022/05/17 23:47:42;;;;;;;6.25;4.18;;;24.80;70.70;;;;;;10946579;32;20597;-73
2022/05/17 23:53:44;;;;;;;6.47;4.10;;;24.70;70.80;;;;;;10946055;32;20031;-73
2022/05/17 23:59:48;;;;;;;9.55;4.10;;;24.70;70.80;;;;;;10946029;32;20027;-74
